Pagrindinis puslapis
METAR-TAF:

METAR-TAF

Oro uostai :

Red Dog Mine, Aliaska, Jungtinės Amerikos Valstijos

platuma: 68-01-56N, ilguma: 162-53-57W, Aukštis: 295 m

Dabartinis oras

Ataskaita buvo paskelbta 8 valandos ir 16 minutes, ne 20:56 UTC
Vėjas 5 kt iš Rytų
Temperatūra 11°C
Drėgmė 54%
Slėgis 1006 hPa
Matomumas: 24.1 km
Išsisklaidę debesys ne aukštis 6000 ft
Su prošvaistėmis ne aukštis 8000 ft

METAR: PADG 152056Z 08005KT 15SM SCT060 BKN080 11/02 A2970

Laikas: 21:12 (05:12 UTC)


TAF: trūkstamas

Orai ataskaitas ir orų prognozės (METAR, TAF).

turimą stotys yra geltonos ir raudonos taškus žemėlapyje.

Perkelti pele per norėdami pamatyti stoties vardą.

Tada spustelėkite, norėdami matyti oro stebėjimo ir prognozės.

Norėdami pakeisti žemėlapį: spustelėkite ant žalios mygtukų su juodo kryžiaus žemyn,; žalią mygtuką su brūkšneliu, jei norite nutolinti; arba žalių rodyklių gretimoms žemėlapius.


METAR-TAF: